Time;durP1;ratioP1;P1;durP2;ratioP2;P2;SDS_P1;SDS_P2;PMS_P1;PMS_P2;Temp;Humidity;BMP_temperature;BMP_pressure;BME280_temperature;BME280_humidity;BME280_pressure;Samples;Min_cycle;Max_cycle;Signal;HPM_P1;HPM_P2
2024/01/28 00:01:04;;;;;;;9.27;7.13;;;;;;;-0.62;84.35;102114.25;3160019;22;20035;-82
2024/01/28 00:02:20;;;;;;;10.65;7.35;;;;;;;-0.66;84.37;102116.63;3160119;22;20020;-83
2024/01/28 00:03:33;;;;;;;10.18;6.15;;;;;;;-0.71;83.94;102118.03;3165204;22;20027;-81
2024/01/28 00:04:47;;;;;;;9.20;6.90;;;;;;;-0.77;83.87;102109.09;3159628;22;20577;-83
2024/01/28 00:06:01;;;;;;;12.10;6.35;;;;;;;-0.82;84.04;102111.38;3159997;22;20024;-80
2024/01/28 00:07:15;;;;;;;13.05;8.75;;;;;;;-0.85;84.05;102112.84;3161198;22;20266;-84
2024/01/28 00:08:29;;;;;;;11.63;7.18;;;;;;;-0.88;84.08;102109.34;3159492;22;20332;-83
2024/01/28 00:09:43;;;;;;;10.82;7.95;;;;;;;-0.89;84.33;102109.22;3160246;22;20272;-83
2024/01/28 00:10:57;;;;;;;12.85;7.45;;;;;;;-0.92;83.98;102104.78;3161236;22;20030;-81
2024/01/28 00:12:11;;;;;;;13.57;8.32;;;;;;;-0.95;83.97;102104.63;3160558;22;20269;-83
2024/01/28 00:13:26;;;;;;;12.63;7.47;;;;;;;-0.98;84.26;102107.00;3161254;22;20024;-83
2024/01/28 00:14:41;;;;;;;14.85;7.93;;;;;;;-1.03;83.92;102103.25;3161510;22;20242;-81
2024/01/28 00:15:55;;;;;;;14.57;7.95;;;;;;;-1.10;84.16;102099.44;3160764;22;20280;-83
2024/01/28 00:17:09;;;;;;;9.90;7.10;;;;;;;-1.16;83.95;102101.63;3161470;22;20323;-83
2024/01/28 00:18:22;;;;;;;13.27;9.88;;;;;;;-1.20;84.18;102093.63;3160871;22;20019;-83
2024/01/28 00:19:37;;;;;;;21.90;7.68;;;;;;;-1.25;83.77;102089.91;3162098;22;20793;-81
2024/01/28 00:20:50;;;;;;;12.50;7.25;;;;;;;-1.32;84.20;102097.22;3161395;22;20023;-83
2024/01/28 00:22:05;;;;;;;8.77;7.22;;;;;;;-1.35;84.24;102091.00;3161670;22;20337;-80
2024/01/28 00:23:20;;;;;;;12.48;8.85;;;;;;;-1.41;84.15;102096.63;3161780;22;20399;-82
2024/01/28 00:24:34;;;;;;;9.20;7.65;;;;;;;-1.47;83.99;102088.56;3160891;22;20249;-82
2024/01/28 00:25:48;;;;;;;13.73;9.10;;;;;;;-1.51;84.26;102091.72;3162580;22;20254;-82
2024/01/28 00:27:02;;;;;;;18.10;7.70;;;;;;;-1.54;84.13;102083.84;3161183;22;20589;-81
2024/01/28 00:28:16;;;;;;;11.50;8.25;;;;;;;-1.54;84.21;102078.72;3161294;22;20019;-79
2024/01/28 00:29:31;;;;;;;11.45;9.60;;;;;;;-1.57;84.29;102076.84;3161893;22;20266;-84
2024/01/28 00:30:46;;;;;;;11.07;7.50;;;;;;;-1.59;84.54;102082.66;3161868;22;20019;-83
2024/01/28 00:32:00;;;;;;;13.00;8.55;;;;;;;-1.62;84.46;102077.34;3162696;22;20246;-81
2024/01/28 00:33:14;;;;;;;13.00;7.40;;;;;;;-1.65;84.44;102077.13;3170048;22;20262;-81
2024/01/28 00:34:28;;;;;;;9.68;7.47;;;;;;;-1.66;84.10;102071.13;3162734;22;20354;-83
2024/01/28 00:35:41;;;;;;;13.48;7.53;;;;;;;-1.66;84.35;102077.94;3161666;22;20035;-82
2024/01/28 00:36:56;;;;;;;15.85;10.23;;;;;;;-1.66;84.56;102077.94;3161324;22;20262;-82
2024/01/28 00:38:10;;;;;;;11.70;7.70;;;;;;;-1.67;84.64;102074.50;3161603;22;20023;-81
2024/01/28 00:39:24;;;;;;;8.98;7.00;;;;;;;-1.68;84.60;102082.06;3161945;22;20266;-81
2024/01/28 00:40:38;;;;;;;13.88;8.02;;;;;;;-1.69;84.56;102080.31;3161244;22;20035;-83
2024/01/28 00:41:52;;;;;;;14.48;7.63;;;;;;;-1.70;84.53;102081.06;3161916;22;20293;-84
2024/01/28 00:43:06;;;;;;;14.82;8.05;;;;;;;-1.71;84.69;102074.19;3167077;22;20019;-82
2024/01/28 00:44:20;;;;;;;9.98;7.82;;;;;;;-1.72;84.80;102077.56;3160865;22;20262;-83
2024/01/28 00:45:39;;;;;;;10.77;7.28;;;;;;;-1.73;84.79;102079.22;3162392;22;20023;-80
2024/01/28 00:46:55;;;;;;;14.15;9.30;;;;;;;-1.73;84.74;102073.22;3167531;22;20317;-82
2024/01/28 00:48:08;;;;;;;13.00;9.02;;;;;;;-1.79;84.28;102071.16;3165435;22;20249;-82
2024/01/28 00:49:29;;;;;;;12.02;8.35;;;;;;;-1.83;84.43;102076.88;3162758;22;20296;-83
2024/01/28 00:50:42;;;;;;;10.65;7.57;;;;;;;-1.90;84.29;102069.59;3163348;22;20023;-82
2024/01/28 00:51:57;;;;;;;11.63;8.10;;;;;;;-1.96;84.56;102070.09;3162520;22;20597;-84
2024/01/28 00:53:10;;;;;;;12.68;9.55;;;;;;;-2.00;84.85;102079.22;3163096;22;20024;-81
2024/01/28 00:54:25;;;;;;;9.00;8.07;;;;;;;-2.04;84.72;102069.59;3166954;22;20277;-79
2024/01/28 00:55:39;;;;;;;11.60;8.57;;;;;;;-2.07;84.51;102071.91;3172210;22;20019;-80
2024/01/28 00:56:54;;;;;;;9.80;7.97;;;;;;;-2.11;84.45;102069.09;3163354;22;20658;-80
2024/01/28 00:58:09;;;;;;;16.48;8.23;;;;;;;-2.16;84.59;102070.44;3160100;22;20044;-83
2024/01/28 00:59:23;;;;;;;15.07;8.65;;;;;;;-2.18;84.62;102064.34;3160549;22;20292;-82
2024/01/28 01:00:40;;;;;;;10.38;7.43;;;;;;;-2.19;84.97;102063.47;3159862;22;20577;-81
2024/01/28 01:01:55;;;;;;;8.90;7.53;;;;;;;-2.18;84.77;102072.91;3165427;22;20741;-82
2024/01/28 01:03:08;;;;;;;8.38;7.40;;;;;;;-2.19;84.61;102073.69;3160237;22;20250;-81
2024/01/28 01:04:23;;;;;;;11.45;8.80;;;;;;;-2.21;85.06;102068.47;3159028;22;20775;-83
2024/01/28 01:05:36;;;;;;;15.63;8.90;;;;;;;-2.19;84.79;102071.13;3159863;22;20030;-82
2024/01/28 01:06:50;;;;;;;11.73;7.15;;;;;;;-2.20;84.77;102074.47;3165046;22;20258;-82
2024/01/28 01:08:04;;;;;;;10.38;8.20;;;;;;;-2.23;84.73;102070.03;3159173;22;20060;-83
2024/01/28 01:09:18;;;;;;;8.32;6.93;;;;;;;-2.21;84.99;102075.25;3159859;22;20285;-83
2024/01/28 01:10:32;;;;;;;10.02;9.00;;;;;;;-2.21;84.86;102067.59;3160124;22;20026;-83
2024/01/28 01:11:46;;;;;;;13.43;9.20;;;;;;;-2.21;85.09;102071.03;3159659;22;20281;-82
2024/01/28 01:13:00;;;;;;;8.80;7.68;;;;;;;-2.22;84.91;102076.03;3159888;22;20034;-82
2024/01/28 01:14:14;;;;;;;15.43;7.80;;;;;;;-2.24;84.88;102073.38;3159498;22;20333;-82
2024/01/28 01:15:29;;;;;;;13.95;10.60;;;;;;;-2.24;85.11;102067.38;3165210;22;20031;-84
2024/01/28 01:16:45;;;;;;;11.13;8.45;;;;;;;-2.23;85.39;102072.59;3159505;22;20361;-80
2024/01/28 01:17:58;;;;;;;13.25;8.23;;;;;;;-2.23;85.02;102067.47;3164989;22;20250;-82
2024/01/28 01:19:13;;;;;;;12.77;8.88;;;;;;;-2.21;85.42;102065.91;3159805;22;20328;-83
2024/01/28 01:20:26;;;;;;;16.30;9.30;;;;;;;-2.17;84.89;102063.53;3159783;22;20019;-82
2024/01/28 01:21:41;;;;;;;13.07;8.77;;;;;;;-2.17;85.42;102059.31;3124030;22;20329;-82
2024/01/28 01:22:54;;;;;;;13.82;9.15;;;;;;;-2.16;84.94;102050.88;3159742;22;20375;-82
2024/01/28 01:24:09;;;;;;;14.63;7.90;;;;;;;-2.15;85.40;102064.53;3159056;22;20246;-82
2024/01/28 01:25:22;;;;;;;10.95;8.43;;;;;;;-2.15;85.10;102057.75;3159849;22;20020;-81
2024/01/28 01:26:37;;;;;;;14.80;8.30;;;;;;;-2.14;85.15;102054.41;3160053;22;20269;-83
2024/01/28 01:27:52;;;;;;;12.15;8.32;;;;;;;-2.14;85.22;102056.06;3159113;22;20031;-84
2024/01/28 01:29:06;;;;;;;12.95;8.55;;;;;;;-2.14;85.00;102054.41;3160205;22;20267;-83
2024/01/28 01:30:20;;;;;;;13.48;9.73;;;;;;;-2.14;85.45;102050.94;3165630;22;20588;-82
2024/01/28 01:31:34;;;;;;;16.48;9.88;;;;;;;-2.15;85.46;102051.75;3159928;22;20266;-80
2024/01/28 01:32:49;;;;;;;12.77;8.88;;;;;;;-2.15;85.32;102041.50;3159902;22;20030;-82
2024/01/28 01:34:03;;;;;;;9.27;7.57;;;;;;;-2.14;84.97;102048.38;3160353;22;20404;-82
2024/01/28 01:35:17;;;;;;;18.27;8.65;;;;;;;-2.15;85.25;102049.19;3160018;22;20266;-81
2024/01/28 01:36:31;;;;;;;11.68;8.02;;;;;;;-2.17;85.26;102051.63;3159269;22;20251;-82
2024/01/28 01:37:45;;;;;;;12.17;8.83;;;;;;;-2.18;85.02;102046.44;3162424;22;20027;-77
2024/01/28 01:39:00;;;;;;;11.07;8.68;;;;;;;-2.22;85.25;102047.88;3168621;22;20301;-83
2024/01/28 01:40:14;;;;;;;13.82;8.18;;;;;;;-2.26;85.33;102046.81;3160354;22;20411;-82
2024/01/28 01:41:28;;;;;;;16.05;10.32;;;;;;;-2.26;85.01;102051.94;3160863;22;20268;-82
2024/01/28 01:42:43;;;;;;;14.55;8.25;;;;;;;-2.27;85.55;102054.38;3160393;22;20250;-81
2024/01/28 01:43:59;;;;;;;22.65;7.78;;;;;;;-2.31;85.34;102054.97;3163180;22;20265;-83
2024/01/28 01:45:12;;;;;;;15.32;7.63;;;;;;;-2.36;85.04;102057.22;3160448;22;20250;-84
2024/01/28 01:46:27;;;;;;;15.18;8.65;;;;;;;-2.39;85.19;102057.03;3160356;22;20254;-82
2024/01/28 01:47:41;;;;;;;13.32;9.77;;;;;;;-2.43;85.09;102050.84;3159638;22;20027;-84
2024/01/28 01:48:57;;;;;;;12.70;8.90;;;;;;;-2.43;85.48;102052.47;3160757;22;20273;-82
2024/01/28 01:50:11;;;;;;;9.25;7.38;;;;;;;-2.49;85.49;102047.84;3160968;22;20043;-81
2024/01/28 01:51:26;;;;;;;11.10;8.63;;;;;;;-2.52;85.51;102051.88;3159378;22;20298;-82
2024/01/28 01:52:40;;;;;;;11.93;8.27;;;;;;;-2.52;85.58;102049.34;3159428;22;20074;-82
2024/01/28 01:53:55;;;;;;;12.38;8.68;;;;;;;-2.51;85.83;102051.09;3164937;22;20337;-84
2024/01/28 01:55:09;;;;;;;9.95;8.35;;;;;;;-2.48;85.67;102051.28;3165180;22;20020;-81
2024/01/28 01:56:24;;;;;;;13.53;8.37;;;;;;;-2.49;85.64;102044.41;3159064;22;20341;-82
2024/01/28 01:57:39;;;;;;;13.65;8.18;;;;;;;-2.51;85.27;102057.09;3159591;22;20020;-81
2024/01/28 01:58:53;;;;;;;10.57;8.90;;;;;;;-2.54;85.44;102051.78;3163899;22;20254;-80
2024/01/28 02:00:08;;;;;;;12.18;8.65;;;;;;;-2.54;85.47;102050.91;3158317;22;20558;-81
2024/01/28 02:01:23;;;;;;;11.53;8.17;;;;;;;-2.60;85.31;102046.25;3164110;22;20334;-81
2024/01/28 02:02:37;;;;;;;11.93;8.30;;;;;;;-2.64;85.53;102040.03;3164122;22;20254;-81
2024/01/28 02:03:54;;;;;;;12.53;9.50;;;;;;;-2.66;85.55;102046.75;3162292;22;20259;-80
2024/01/28 02:05:09;;;;;;;11.30;7.77;;;;;;;-2.65;85.51;102045.06;3159201;22;20353;-81
2024/01/28 02:06:23;;;;;;;14.60;8.25;;;;;;;-2.66;85.58;102046.75;3158883;22;20771;-80
2024/01/28 02:07:37;;;;;;;13.35;8.88;;;;;;;-2.70;85.58;102038.75;3158872;22;20255;-81
2024/01/28 02:08:52;;;;;;;11.90;7.13;;;;;;;-2.71;85.82;102042.09;3158202;22;20693;-82
2024/01/28 02:10:07;;;;;;;17.08;8.55;;;;;;;-2.72;85.97;102043.75;3159031;22;20419;-82
2024/01/28 02:11:22;;;;;;;11.67;9.27;;;;;;;-2.73;85.82;102036.00;3158876;22;20266;-81
2024/01/28 02:12:35;;;;;;;13.70;8.37;;;;;;;-2.75;86.02;102038.44;3158372;22;20759;-81
2024/01/28 02:13:50;;;;;;;10.50;7.47;;;;;;;-2.77;85.81;102037.44;3159490;22;20319;-83
2024/01/28 02:15:04;;;;;;;8.93;7.33;;;;;;;-2.78;85.80;102035.69;3159270;22;20024;-82
2024/01/28 02:16:19;;;;;;;13.53;8.23;;;;;;;-2.80;85.71;102032.13;3160674;22;20293;-82
2024/01/28 02:17:33;;;;;;;11.90;7.90;;;;;;;-2.80;85.83;102037.25;3159669;22;20284;-80
2024/01/28 02:18:47;;;;;;;10.83;7.70;;;;;;;-2.78;85.62;102039.91;3164406;22;20724;-81
2024/01/28 02:20:01;;;;;;;13.50;7.97;;;;;;;-2.79;86.02;102023.69;3159215;22;20313;-80
2024/01/28 02:21:17;;;;;;;12.23;8.57;;;;;;;-2.77;85.57;102037.44;3159628;22;20337;-81
2024/01/28 02:22:30;;;;;;;15.70;9.53;;;;;;;-2.77;86.10;102032.34;3159597;22;20266;-81
2024/01/28 02:23:46;;;;;;;12.87;9.73;;;;;;;-2.77;86.00;102034.91;3158993;22;20425;-81
2024/01/28 02:25:00;;;;;;;10.77;7.67;;;;;;;-2.77;85.58;102034.91;3159901;22;20038;-81
2024/01/28 02:26:14;;;;;;;12.53;8.63;;;;;;;-2.75;86.14;102035.88;3159923;22;20348;-82
2024/01/28 02:27:28;;;;;;;13.63;10.57;;;;;;;-2.73;86.07;102034.31;3164748;22;20019;-82
2024/01/28 02:28:42;;;;;;;16.73;9.00;;;;;;;-2.70;86.19;102029.41;3158656;22;20285;-81
2024/01/28 02:29:55;;;;;;;10.27;8.47;;;;;;;-2.67;85.90;102031.28;3159555;22;20024;-80
2024/01/28 02:31:10;;;;;;;11.73;9.63;;;;;;;-2.67;85.85;102027.06;3164996;22;20258;-82
2024/01/28 02:32:23;;;;;;;16.10;9.87;;;;;;;-2.67;86.17;102031.28;3159843;22;20016;-81
2024/01/28 02:33:38;;;;;;;14.30;8.93;;;;;;;-2.68;86.13;102022.75;3160363;22;20341;-81
2024/01/28 02:34:51;;;;;;;13.27;9.03;;;;;;;-2.65;85.77;102025.50;3159573;22;20031;-79
2024/01/28 02:36:07;;;;;;;10.63;8.27;;;;;;;-2.64;86.27;102026.38;3158870;22;20311;-80
2024/01/28 02:37:20;;;;;;;13.90;8.90;;;;;;;-2.65;85.97;102028.06;3159616;22;20023;-82
2024/01/28 02:38:35;;;;;;;16.50;9.07;;;;;;;-2.68;85.60;102027.84;3159711;22;20886;-82
2024/01/28 02:39:49;;;;;;;16.73;10.47;;;;;;;-2.70;85.81;102020.88;3159461;22;20032;-82
2024/01/28 02:41:04;;;;;;;10.70;8.37;;;;;;;-2.73;85.64;102026.66;3159681;22;20764;-81
2024/01/28 02:42:18;;;;;;;16.90;8.00;;;;;;;-2.72;86.17;102017.31;3159976;22;20254;-82
2024/01/28 02:43:33;;;;;;;18.30;9.63;;;;;;;-2.71;85.84;102019.09;3169623;22;20313;-81
2024/01/28 02:44:46;;;;;;;16.53;9.33;;;;;;;-2.70;86.27;102019.19;3160887;22;20034;-82
2024/01/28 02:46:00;;;;;;;12.33;8.30;;;;;;;-2.68;86.06;102024.41;3160347;22;20372;-82
2024/01/28 02:47:14;;;;;;;10.83;8.70;;;;;;;-2.68;86.11;102022.75;3160385;22;20042;-82
2024/01/28 02:48:28;;;;;;;14.57;10.53;;;;;;;-2.69;86.12;102026.06;3159686;22;20257;-81
2024/01/28 02:49:42;;;;;;;16.37;8.27;;;;;;;-2.69;85.65;102020.06;3160202;22;20359;-82
2024/01/28 02:50:57;;;;;;;14.37;9.03;;;;;;;-2.71;85.86;102019.09;3159886;22;20266;-82
2024/01/28 02:52:10;;;;;;;14.93;8.50;;;;;;;-2.69;86.05;102014.97;3159007;22;20020;-82
2024/01/28 02:53:24;;;;;;;11.40;7.97;;;;;;;-2.71;85.77;102019.09;3159762;22;20286;-82
2024/01/28 02:54:38;;;;;;;22.33;9.90;;;;;;;-2.69;86.09;102020.97;3165050;22;20016;-80
2024/01/28 02:55:57;;;;;;;17.05;9.50;;;;;;;-2.69;86.06;102010.72;3159232;22;20341;-81
2024/01/28 02:57:10;;;;;;;12.03;7.53;;;;;;;-2.70;85.80;102008.97;3160192;22;20114;-82
2024/01/28 02:58:25;;;;;;;10.97;7.17;;;;;;;-2.71;86.03;102017.44;3164615;22;20258;-82
2024/01/28 02:59:38;;;;;;;12.33;8.13;;;;;;;-2.71;86.20;102006.31;3159635;22;20020;-81
2024/01/28 03:00:53;;;;;;;9.57;7.17;;;;;;;-2.72;86.21;102005.44;3161872;22;20266;-80
2024/01/28 03:02:07;;;;;;;17.33;10.77;;;;;;;-2.73;86.16;102006.22;3165008;22;20015;-82
2024/01/28 03:03:21;;;;;;;11.30;7.57;;;;;;;-2.73;85.79;102015.56;3164809;22;20254;-81
2024/01/28 03:04:35;;;;;;;17.80;7.97;;;;;;;-2.74;85.87;102011.22;3160144;22;20030;-82
2024/01/28 03:05:50;;;;;;;14.17;8.00;;;;;;;-2.74;86.13;102016.31;3160015;22;20273;-81
2024/01/28 03:07:04;;;;;;;9.97;8.60;;;;;;;-2.75;85.71;102002.66;3165119;22;20258;-80
2024/01/28 03:08:18;;;;;;;10.10;6.77;;;;;;;-2.76;85.92;102007.66;3159557;22;20257;-83
2024/01/28 03:09:31;;;;;;;14.23;8.33;;;;;;;-2.77;86.21;102011.91;3160717;22;20339;-81
2024/01/28 03:10:46;;;;;;;12.23;7.50;;;;;;;-2.78;85.91;102007.59;3159836;22;20266;-83
2024/01/28 03:12:00;;;;;;;13.50;9.03;;;;;;;-2.78;85.79;102009.25;3159226;22;20103;-83
2024/01/28 03:13:15;;;;;;;9.70;7.97;;;;;;;-2.80;85.97;102014.25;3159719;22;20301;-82
2024/01/28 03:14:28;;;;;;;14.57;10.50;;;;;;;-2.82;86.18;102015.81;3165386;22;20277;-83
2024/01/28 03:15:43;;;;;;;12.63;8.10;;;;;;;-2.85;86.11;102013.94;3159491;22;20341;-82
2024/01/28 03:16:57;;;;;;;12.37;7.37;;;;;;;-2.86;86.03;102012.19;3159960;22;20024;-77
2024/01/28 03:18:12;;;;;;;11.80;8.37;;;;;;;-2.88;85.90;101998.41;3164889;22;20258;-78
2024/01/28 03:19:26;;;;;;;17.48;7.93;;;;;;;-2.92;85.80;102011.78;3165560;22;20020;-80
2024/01/28 03:20:41;;;;;;;16.93;9.33;;;;;;;-2.94;85.85;102013.34;3165096;22;20311;-80
2024/01/28 03:21:54;;;;;;;12.43;7.57;;;;;;;-2.97;86.21;102007.13;3165686;22;20035;-80
2024/01/28 03:23:09;;;;;;;19.07;8.20;;;;;;;-3.01;85.81;102010.25;3165405;22;20258;-80
2024/01/28 03:24:22;;;;;;;12.83;8.43;;;;;;;-3.04;85.89;102010.06;3165522;22;20039;-80
2024/01/28 03:25:37;;;;;;;13.60;9.20;;;;;;;-3.06;85.82;102004.84;3165535;22;20262;-78
2024/01/28 03:26:50;;;;;;;11.35;8.05;;;;;;;-3.08;85.89;102011.50;3166017;22;20023;-79
2024/01/28 03:28:06;;;;;;;17.37;8.57;;;;;;;-3.08;85.97;102014.94;3164154;22;20618;-78
2024/01/28 03:29:20;;;;;;;12.43;8.57;;;;;;;-3.09;86.34;102013.16;3170716;22;20031;-79
2024/01/28 03:30:34;;;;;;;9.80;8.13;;;;;;;-3.11;86.19;102014.72;3164703;22;20301;-80
2024/01/28 03:31:48;;;;;;;13.23;8.30;;;;;;;-3.13;86.19;102016.28;3165229;22;20027;-78
2024/01/28 03:33:02;;;;;;;13.63;8.17;;;;;;;-3.13;85.83;102016.28;3165283;22;20316;-79
2024/01/28 03:34:16;;;;;;;13.40;10.37;;;;;;;-3.12;86.04;102010.41;3165578;22;20023;-77
2024/01/28 03:35:30;;;;;;;10.67;8.20;;;;;;;-3.11;86.04;102009.63;3165475;22;20305;-79
2024/01/28 03:36:43;;;;;;;14.27;12.57;;;;;;;-3.11;85.88;102012.16;3166141;22;20023;-79
2024/01/28 03:37:58;;;;;;;14.33;8.77;;;;;;;-3.14;86.08;102011.97;3164565;22;20333;-79
2024/01/28 03:39:14;;;;;;;11.30;8.00;;;;;;;-3.15;86.11;102016.97;3165721;22;20450;-80
2024/01/28 03:40:28;;;;;;;12.87;9.77;;;;;;;-3.16;85.87;102016.06;3164196;22;20250;-80
2024/01/28 03:41:41;;;;;;;10.13;7.80;;;;;;;-3.19;85.81;102015.88;3166758;22;20273;-80
2024/01/28 03:42:56;;;;;;;14.97;9.10;;;;;;;-3.20;86.15;102018.31;3165999;22;20748;-78
2024/01/28 03:44:11;;;;;;;12.10;8.23;;;;;;;-3.23;85.81;102020.66;3166513;22;20485;-79
2024/01/28 03:45:26;;;;;;;9.33;6.70;;;;;;;-3.26;86.24;102023.88;3166108;22;20801;-78
2024/01/28 03:46:39;;;;;;;18.03;8.67;;;;;;;-3.28;86.54;102022.88;3166049;22;20258;-77
2024/01/28 03:47:54;;;;;;;12.57;7.93;;;;;;;-3.29;86.24;102024.56;3164927;22;21020;-79
2024/01/28 03:49:07;;;;;;;14.13;8.27;;;;;;;-3.29;86.38;102024.56;3165050;22;20031;-79
2024/01/28 03:50:22;;;;;;;9.97;7.60;;;;;;;-3.29;86.42;102028.78;3165377;22;20262;-79
2024/01/28 03:51:35;;;;;;;12.57;8.43;;;;;;;-3.29;86.14;102029.66;3170042;22;20071;-80
2024/01/28 03:52:50;;;;;;;9.87;7.60;;;;;;;-3.31;86.14;102026.09;3165530;22;20261;-79
2024/01/28 03:54:03;;;;;;;14.67;8.27;;;;;;;-3.30;86.44;102030.47;3164547;22;20038;-79
2024/01/28 03:55:17;;;;;;;12.40;7.90;;;;;;;-3.30;85.91;102029.56;3166206;22;20314;-77
2024/01/28 03:56:31;;;;;;;11.23;9.30;;;;;;;-3.33;86.10;102027.69;3164332;22;20471;-79
2024/01/28 03:57:46;;;;;;;15.97;9.37;;;;;;;-3.34;86.41;102031.00;3166006;22;20266;-78
2024/01/28 03:58:59;;;;;;;14.43;9.67;;;;;;;-3.34;86.33;102031.00;3164790;22;20072;-79
2024/01/28 04:00:18;;;;;;;14.03;9.77;;;;;;;-3.35;85.92;102034.34;3165385;22;20296;-78
2024/01/28 04:01:32;;;;;;;10.93;8.80;;;;;;;-3.34;86.25;102032.69;3165236;22;20470;-78
2024/01/28 04:02:46;;;;;;;24.53;11.33;;;;;;;-3.34;86.23;102038.66;3165527;22;20310;-79
2024/01/28 04:04:00;;;;;;;17.43;9.50;;;;;;;-3.32;85.96;102036.22;3164599;22;20324;-78
2024/01/28 04:05:14;;;;;;;16.43;9.67;;;;;;;-3.33;86.03;102031.88;3164366;22;20314;-78
2024/01/28 04:06:27;;;;;;;13.30;9.80;;;;;;;-3.35;86.20;102031.81;3164041;22;20055;-79
2024/01/28 04:07:42;;;;;;;11.47;8.80;;;;;;;-3.34;86.02;102040.34;3164994;22;20772;-78
2024/01/28 04:08:55;;;;;;;12.93;9.47;;;;;;;-3.32;86.07;102038.78;3164309;22;20362;-77
2024/01/28 04:10:10;;;;;;;12.03;8.53;;;;;;;-3.29;86.16;102034.78;3165475;22;20266;-79
2024/01/28 04:11:24;;;;;;;11.63;8.93;;;;;;;-3.26;86.55;102036.66;3165513;22;20024;-79
2024/01/28 04:12:38;;;;;;;12.13;8.03;;;;;;;-3.23;86.05;102039.41;3164184;22;20256;-79
2024/01/28 04:13:53;;;;;;;16.50;9.10;;;;;;;-3.20;86.23;102037.09;3168774;22;20254;-77
2024/01/28 04:15:08;;;;;;;12.80;9.37;;;;;;;-3.19;86.36;102040.53;3171857;22;20245;-77
2024/01/28 04:16:23;;;;;;;10.80;7.67;;;;;;;-3.18;85.96;102035.50;3172195;22;20243;-77
2024/01/28 04:17:37;;;;;;;10.97;7.70;;;;;;;-3.19;86.13;102032.88;3171286;22;20329;-79
2024/01/28 04:18:51;;;;;;;16.33;9.60;;;;;;;-3.18;85.96;102032.06;3161284;22;20916;-78
2024/01/28 04:20:08;;;;;;;16.30;9.83;;;;;;;-3.18;86.41;102027.84;3159329;22;20248;-78
2024/01/28 04:21:23;;;;;;;17.23;9.67;;;;;;;-3.18;86.38;102017.63;3160852;22;20497;-77
2024/01/28 04:22:38;;;;;;;11.60;8.73;;;;;;;-3.19;86.24;102028.63;3160048;22;20277;-77
2024/01/28 04:23:51;;;;;;;12.97;9.93;;;;;;;-3.19;86.08;102023.53;3160839;22;20261;-78
2024/01/28 04:25:06;;;;;;;12.07;9.23;;;;;;;-3.21;86.06;102022.53;3159852;22;20262;-79
2024/01/28 04:26:20;;;;;;;13.97;9.37;;;;;;;-3.23;86.05;102018.09;3165459;22;20015;-79
2024/01/28 04:27:35;;;;;;;17.80;8.90;;;;;;;-3.24;85.98;102022.34;3159527;22;20266;-78
2024/01/28 04:28:48;;;;;;;13.40;9.70;;;;;;;-3.25;86.19;102027.31;3160161;22;20023;-78
2024/01/28 04:30:04;;;;;;;12.70;8.90;;;;;;;-3.24;85.98;102024.88;3160013;22;20566;-79
2024/01/28 04:31:19;;;;;;;13.80;9.67;;;;;;;-3.24;86.22;102030.00;3161679;22;20071;-78
2024/01/28 04:32:35;;;;;;;20.10;9.47;;;;;;;-3.26;86.07;102029.00;3159388;22;20296;-79
2024/01/28 04:33:48;;;;;;;9.97;8.23;;;;;;;-3.26;86.16;102031.53;3161863;22;20574;-79
2024/01/28 04:35:03;;;;;;;9.73;8.57;;;;;;;-3.28;86.25;102025.44;3160661;22;20293;-78
2024/01/28 04:36:17;;;;;;;12.30;8.87;;;;;;;-3.32;86.27;102028.56;3161695;22;20020;-78
2024/01/28 04:37:31;;;;;;;11.10;9.50;;;;;;;-3.36;86.22;102019.81;3160908;22;20338;-78
2024/01/28 04:38:44;;;;;;;14.20;8.80;;;;;;;-3.35;85.81;102025.81;3161784;22;20020;-78
2024/01/28 04:39:59;;;;;;;10.63;7.53;;;;;;;-3.37;86.24;102030.81;3161815;22;20226;-78
2024/01/28 04:41:12;;;;;;;11.50;7.93;;;;;;;-3.40;86.06;102022.06;3161581;22;20019;-79
2024/01/28 04:42:27;;;;;;;13.17;9.20;;;;;;;-3.43;85.99;102025.28;3162636;22;20296;-78
2024/01/28 04:43:40;;;;;;;13.17;8.03;;;;;;;-3.45;85.72;102028.50;3161292;22;20016;-78
2024/01/28 04:44:54;;;;;;;14.37;9.37;;;;;;;-3.45;86.32;102023.41;3162494;22;20266;-79
2024/01/28 04:46:08;;;;;;;10.77;8.17;;;;;;;-3.46;86.34;102019.94;3162573;22;20026;-78
2024/01/28 04:47:23;;;;;;;12.03;8.87;;;;;;;-3.46;86.15;102016.50;3163134;22;20747;-77
2024/01/28 04:48:37;;;;;;;14.07;9.83;;;;;;;-3.47;86.34;102019.84;3160495;22;20012;-77
2024/01/28 04:49:52;;;;;;;13.50;9.17;;;;;;;-3.47;86.20;102017.28;3162863;22;20345;-79
2024/01/28 04:51:06;;;;;;;10.47;8.60;;;;;;;-3.48;85.85;102016.41;3161598;22;20263;-78
2024/01/28 04:52:21;;;;;;;9.50;7.63;;;;;;;-3.49;85.97;102016.28;3162757;22;20270;-79
2024/01/28 04:53:34;;;;;;;16.10;8.93;;;;;;;-3.52;85.89;102017.84;3161782;22;20640;-79
2024/01/28 04:54:49;;;;;;;15.83;9.60;;;;;;;-3.52;86.17;102020.41;3162205;22;20262;-77
2024/01/28 04:56:03;;;;;;;13.80;8.47;;;;;;;-3.54;85.75;102016.88;3160516;22;20049;-78
2024/01/28 04:57:17;;;;;;;12.30;9.13;;;;;;;-3.52;86.04;102014.41;3162635;22;20326;-78
2024/01/28 04:58:30;;;;;;;15.83;9.63;;;;;;;-3.48;85.76;102020.59;3161676;22;20444;-79
2024/01/28 04:59:45;;;;;;;11.27;8.77;;;;;;;-3.45;85.82;102018.28;3162259;22;20269;-77
2024/01/28 05:00:58;;;;;;;12.90;9.23;;;;;;;-3.42;86.01;102018.50;3161634;22;20023;-80
2024/01/28 05:02:13;;;;;;;13.20;8.63;;;;;;;-3.42;85.79;102021.94;3161545;22;20333;-79
2024/01/28 05:03:26;;;;;;;13.83;8.00;;;;;;;-3.40;86.25;102020.38;3162022;22;20026;-79
2024/01/28 05:04:42;;;;;;;10.37;7.33;;;;;;;-3.39;85.80;102019.59;3160989;22;20584;-79
2024/01/28 05:05:55;;;;;;;11.77;7.73;;;;;;;-3.39;86.12;102017.03;3162979;22;20046;-81
2024/01/28 05:07:10;;;;;;;10.03;7.67;;;;;;;-3.40;86.01;102012.72;3160830;22;20266;-79
2024/01/28 05:08:23;;;;;;;13.60;7.80;;;;;;;-3.40;86.23;102011.84;3161708;22;20019;-77
2024/01/28 05:09:38;;;;;;;11.63;8.00;;;;;;;-3.40;85.74;102006.75;3165785;22;20357;-80
2024/01/28 05:10:52;;;;;;;11.67;9.37;;;;;;;-3.39;85.89;102011.06;3162679;22;20020;-79
2024/01/28 05:12:07;;;;;;;9.37;7.60;;;;;;;-3.38;85.76;102010.25;3160549;22;20302;-79
2024/01/28 05:13:21;;;;;;;10.07;7.37;;;;;;;-3.40;86.05;102006.75;3162258;22;20023;-77
2024/01/28 05:14:35;;;;;;;12.60;7.37;;;;;;;-3.45;86.17;102005.53;3161025;22;20740;-78
2024/01/28 05:15:49;;;;;;;12.87;8.33;;;;;;;-3.51;85.88;102006.88;3161602;22;20091;-79
2024/01/28 05:17:05;;;;;;;9.87;7.30;;;;;;;-3.57;85.67;102011.53;3160867;22;20316;-80
2024/01/28 05:18:19;;;;;;;11.83;9.03;;;;;;;-3.61;85.80;102013.78;3163167;22;20081;-79
2024/01/28 05:19:33;;;;;;;11.57;7.70;;;;;;;-3.64;85.86;102004.25;3165998;22;20257;-79
2024/01/28 05:20:48;;;;;;;10.03;7.37;;;;;;;-3.68;85.52;102004.81;3162338;22;20238;-81
2024/01/28 05:22:04;;;;;;;10.80;7.40;;;;;;;-3.72;86.04;102002.78;3160964;22;20293;-78
2024/01/28 05:23:17;;;;;;;8.43;7.50;;;;;;;-3.75;85.73;101994.94;3162667;22;20261;-81
2024/01/28 05:24:32;;;;;;;11.80;8.13;;;;;;;-3.76;85.54;101999.16;3161493;22;20250;-79
2024/01/28 05:25:45;;;;;;;12.70;7.33;;;;;;;-3.78;85.66;101994.72;3167081;22;20034;-80
2024/01/28 05:27:02;;;;;;;10.93;8.17;;;;;;;-3.81;85.86;101995.41;3163923;22;20266;-79
2024/01/28 05:28:15;;;;;;;10.67;7.00;;;;;;;-3.81;85.71;101999.63;3164881;22;20405;-80
2024/01/28 05:29:30;;;;;;;12.77;7.77;;;;;;;-3.79;85.96;101987.88;3163914;22;20325;-78
2024/01/28 05:30:43;;;;;;;10.87;7.43;;;;;;;-3.77;86.01;101992.28;3162442;22;20028;-79
2024/01/28 05:31:58;;;;;;;8.57;6.60;;;;;;;-3.76;85.88;101994.06;3164627;22;20828;-79
2024/01/28 05:33:11;;;;;;;10.07;8.00;;;;;;;-3.75;85.90;101989.84;3162905;22;20024;-80
2024/01/28 05:34:26;;;;;;;7.23;6.30;;;;;;;-3.76;86.18;101994.06;3165414;22;20338;-79
2024/01/28 05:35:39;;;;;;;10.07;7.60;;;;;;;-3.76;86.12;101990.63;3162908;22;20446;-80
2024/01/28 05:36:55;;;;;;;9.00;6.07;;;;;;;-3.78;86.11;101992.19;3165027;22;20322;-80
2024/01/28 05:38:09;;;;;;;12.30;7.93;;;;;;;-3.80;86.04;101986.06;3163064;22;20020;-79
2024/01/28 05:39:23;;;;;;;11.63;7.90;;;;;;;-3.80;86.21;101989.50;3166415;22;20799;-80
2024/01/28 05:40:37;;;;;;;10.73;7.27;;;;;;;-3.79;85.80;101981.09;3163836;22;20024;-79
2024/01/28 05:41:51;;;;;;;10.80;7.67;;;;;;;-3.77;85.88;101978.63;3165704;22;20327;-80